createdAt,value
2019-05-21T00:02:25.698Z,28.33
2019-05-21T00:04:54.503Z,28.13
2019-05-21T00:07:23.240Z,30.53
2019-05-21T00:09:52.010Z,28.43
2019-05-21T00:12:20.727Z,30.37
2019-05-21T00:14:49.484Z,31.63
2019-05-21T00:17:18.301Z,30.10
2019-05-21T00:19:47.109Z,31.67
2019-05-21T00:22:15.828Z,30.83
2019-05-21T00:24:44.740Z,37.60
2019-05-21T00:27:13.495Z,30.17
2019-05-21T00:30:18.586Z,29.37
2019-05-21T00:33:23.789Z,29.27
2019-05-21T00:36:30.137Z,28.10
2019-05-21T00:39:35.478Z,28.30
2019-05-21T00:42:03.146Z,25.23
2019-05-21T00:44:35.263Z,24.60
2019-05-21T00:47:05.192Z,24.40
2019-05-21T00:49:34.019Z,22.13
2019-05-21T00:52:08.174Z,19.90
2019-05-21T00:54:33.526Z,22.03
2019-05-21T00:57:02.321Z,20.40
2019-05-21T00:59:31.148Z,21.93
2019-05-21T01:01:59.915Z,24.33
2019-05-21T01:04:28.663Z,26.10
2019-05-21T01:06:57.405Z,26.60
2019-05-21T01:09:26.506Z,31.67
2019-05-21T01:11:55.241Z,30.33
2019-05-21T01:14:23.979Z,35.60
2019-05-21T01:16:52.779Z,33.97
2019-05-21T01:19:21.527Z,33.03
2019-05-21T01:21:50.361Z,34.63
2019-05-21T01:24:19.175Z,37.87
2019-05-21T01:26:47.926Z,37.00
2019-05-21T01:29:16.739Z,37.63
2019-05-21T01:31:45.491Z,36.27
2019-05-21T01:34:14.219Z,37.83
2019-05-21T01:36:42.971Z,37.60
2019-05-21T01:39:11.768Z,37.10
2019-05-21T01:41:40.547Z,38.67
2019-05-21T01:44:09.359Z,32.27
2019-05-21T01:46:38.147Z,30.63
2019-05-21T01:49:06.884Z,29.73
2019-05-21T01:51:35.781Z,28.77
2019-05-21T01:54:04.800Z,27.40
2019-05-21T01:56:33.615Z,27.40
2019-05-21T01:59:02.367Z,22.87
2019-05-21T02:01:31.461Z,22.43
2019-05-21T02:04:00.196Z,21.80
2019-05-21T02:06:28.948Z,21.37
2019-05-21T02:08:57.672Z,24.23
2019-05-21T02:11:26.418Z,23.23
2019-05-21T02:13:55.172Z,28.73
2019-05-21T02:16:23.916Z,27.70
2019-05-21T02:18:52.743Z,37.60
2019-05-21T02:21:21.577Z,37.60
2019-05-21T02:23:50.585Z,37.33
2019-05-21T02:26:19.401Z,41.93
2019-05-21T02:28:48.163Z,42.80
2019-05-21T02:31:16.916Z,45.70
2019-05-21T02:33:45.866Z,50.57
2019-05-21T02:36:14.626Z,53.10
2019-05-21T02:38:43.571Z,52.50
2019-05-21T02:41:12.436Z,55.10
2019-05-21T02:43:41.493Z,49.97
2019-05-21T02:46:10.287Z,52.23
2019-05-21T02:48:39.018Z,47.77
2019-05-21T02:51:07.762Z,51.20
2019-05-21T02:53:36.499Z,52.30
2019-05-21T02:56:05.325Z,54.10
2019-05-21T02:58:34.133Z,51.00
2019-05-21T03:01:12.512Z,51.33
2019-05-21T03:03:41.323Z,50.17
2019-05-21T03:06:14.168Z,43.13
2019-05-21T03:08:43.527Z,41.87
2019-05-21T03:11:12.273Z,39.90
2019-05-21T03:13:41.024Z,35.87
2019-05-21T03:16:09.744Z,34.20
2019-05-21T03:18:38.486Z,33.37
2019-05-21T03:21:07.359Z,33.47
2019-05-21T03:23:36.173Z,33.00
2019-05-21T03:26:05.045Z,36.83
2019-05-21T03:28:33.850Z,32.60
2019-05-21T03:31:02.565Z,36.63
2019-05-21T03:33:31.433Z,34.33
2019-05-21T03:36:00.173Z,34.23
2019-05-21T03:38:28.938Z,35.23
2019-05-21T03:40:57.698Z,34.77
2019-05-21T03:43:26.501Z,30.50
2019-05-21T03:45:55.233Z,32.37
2019-05-21T03:48:24.088Z,30.83
2019-05-21T03:50:52.905Z,30.13
2019-05-21T03:53:21.670Z,29.23
2019-05-21T03:55:50.435Z,27.43
2019-05-21T03:58:19.191Z,28.30
2019-05-21T04:00:48.294Z,28.03
2019-05-21T04:03:17.052Z,29.53
2019-05-21T04:05:45.872Z,28.63
2019-05-21T04:08:14.620Z,29.77
2019-05-21T04:10:43.429Z,25.53
2019-05-21T04:13:12.515Z,23.97
2019-05-21T04:16:06.710Z,24.83
2019-05-21T04:18:43.298Z,22.83
2019-05-21T04:21:12.095Z,23.73
2019-05-21T04:23:40.878Z,23.47
2019-05-21T04:26:09.601Z,25.57
2019-05-21T04:28:38.458Z,26.37
2019-05-21T04:31:07.551Z,24.23
2019-05-21T04:33:36.344Z,22.40
2019-05-21T04:36:05.356Z,22.43
2019-05-21T04:38:34.215Z,22.10
2019-05-21T04:41:03.122Z,19.97
2019-05-21T04:43:31.880Z,22.17
2019-05-21T04:46:00.860Z,23.13
2019-05-21T04:48:29.632Z,23.17
2019-05-21T04:50:58.533Z,25.47
2019-05-21T04:53:27.370Z,27.20
2019-05-21T04:55:56.096Z,25.70
2019-05-21T04:58:24.838Z,24.03
2019-05-21T05:00:53.711Z,25.70
2019-05-21T05:03:22.605Z,25.87
2019-05-21T05:05:51.413Z,26.23
2019-05-21T05:08:20.226Z,26.70
2019-05-21T05:10:49.495Z,26.37
2019-05-21T05:13:18.282Z,24.67
2019-05-21T05:15:47.010Z,26.23
2019-05-21T05:18:16.047Z,25.17
2019-05-21T05:20:44.771Z,26.10
2019-05-21T05:23:13.551Z,24.00
2019-05-21T05:25:42.351Z,29.90
2019-05-21T05:28:11.106Z,35.30
2019-05-21T05:30:39.996Z,32.67
2019-05-21T05:33:08.955Z,29.03
2019-05-21T05:35:37.797Z,26.53
2019-05-21T05:38:06.582Z,27.57
2019-05-21T05:40:35.331Z,25.97
2019-05-21T05:43:04.396Z,26.53
2019-05-21T05:45:33.533Z,26.43
2019-05-21T05:48:02.341Z,25.33
2019-05-21T05:50:34.656Z,24.50
2019-05-21T05:53:03.462Z,28.30
2019-05-21T05:55:32.293Z,29.40
2019-05-21T05:58:01.122Z,26.63
2019-05-21T06:00:30.136Z,29.00
2019-05-21T06:02:58.951Z,37.63
2019-05-21T06:05:27.932Z,35.60
2019-05-21T06:08:00.074Z,34.03
2019-05-21T06:10:28.516Z,28.33
2019-05-21T06:12:57.278Z,26.90
2019-05-21T06:15:26.138Z,24.83
2019-05-21T06:17:55.042Z,24.97
2019-05-21T06:20:24.394Z,19.97
2019-05-21T06:22:53.255Z,22.23
2019-05-21T06:25:22.151Z,25.43
2019-05-21T06:27:50.928Z,21.17
2019-05-21T06:30:19.890Z,25.67
2019-05-21T06:32:48.635Z,18.93
2019-05-21T06:35:17.881Z,24.47
2019-05-21T06:37:46.614Z,20.00
2019-05-21T06:40:16.829Z,17.27
2019-05-21T06:42:45.600Z,17.20
2019-05-21T06:45:15.016Z,18.67
2019-05-21T06:47:43.805Z,15.93
2019-05-21T06:50:12.799Z,18.83
2019-05-21T06:52:41.584Z,17.47
2019-05-21T06:55:11.306Z,16.57
2019-05-21T06:57:40.174Z,19.33
2019-05-21T07:00:10.816Z,18.33
2019-05-21T07:02:39.568Z,18.33
2019-05-21T07:05:08.707Z,18.13
2019-05-21T07:07:37.728Z,19.40
2019-05-21T07:10:07.202Z,19.53
2019-05-21T07:12:36.491Z,19.73
2019-05-21T07:15:06.163Z,20.10
2019-05-21T07:17:34.974Z,19.03
2019-05-21T07:20:04.001Z,20.73
2019-05-21T07:22:32.823Z,22.07
2019-05-21T07:25:01.635Z,18.53
2019-05-21T07:27:30.340Z,20.10
2019-05-21T07:29:59.167Z,18.17
2019-05-21T07:32:28.054Z,18.73
2019-05-21T07:34:56.956Z,20.53
2019-05-21T07:37:25.670Z,19.67
2019-05-21T07:39:54.413Z,19.67
2019-05-21T07:42:23.144Z,20.17
2019-05-21T07:44:51.887Z,18.73
2019-05-21T07:47:20.607Z,18.23
2019-05-21T07:49:49.356Z,19.30
2019-05-21T07:52:18.348Z,17.80
2019-05-21T07:54:47.168Z,20.90
2019-05-21T07:57:15.901Z,17.80
2019-05-21T07:59:44.687Z,17.70
2019-05-21T08:02:13.426Z,16.43
2019-05-21T08:04:42.206Z,16.93
2019-05-21T08:07:10.941Z,15.73
2019-05-21T08:09:40.141Z,18.47
2019-05-21T08:12:27.861Z,17.00
2019-05-21T08:14:39.407Z,16.43
2019-05-21T08:17:08.148Z,16.23
2019-05-21T08:19:36.870Z,14.50
2019-05-21T08:22:05.639Z,11.97
2019-05-21T08:24:34.362Z,12.70
2019-05-21T08:27:03.413Z,10.17
2019-05-21T08:29:32.125Z,8.90
2019-05-21T08:32:00.862Z,10.03
2019-05-21T08:34:29.598Z,9.57
2019-05-21T08:36:58.434Z,9.13
2019-05-21T08:39:29.071Z,9.13
2019-05-21T08:41:58.076Z,7.90
2019-05-21T08:44:26.820Z,6.83
2019-05-21T08:46:55.614Z,7.63
2019-05-21T08:49:24.404Z,6.47
2019-05-21T08:51:53.151Z,6.53
2019-05-21T08:54:40.900Z,6.07
2019-05-21T08:57:09.711Z,6.40
2019-05-21T08:59:38.444Z,6.40
2019-05-21T09:02:07.452Z,7.10
2019-05-21T09:04:45.858Z,7.10
2019-05-21T09:07:07.031Z,9.17
2019-05-21T09:09:49.461Z,7.97
2019-05-21T09:12:06.363Z,9.57
2019-05-21T09:14:35.185Z,10.10
2019-05-21T09:17:04.249Z,10.20
2019-05-21T09:19:36.159Z,10.50
2019-05-21T09:22:03.532Z,11.53
2019-05-21T09:24:32.348Z,13.53
2019-05-21T09:27:01.110Z,11.77
2019-05-21T09:29:29.848Z,12.47
2019-05-21T09:31:58.583Z,13.27
2019-05-21T09:34:27.368Z,14.30
2019-05-21T09:36:56.160Z,14.70
2019-05-21T09:39:24.899Z,16.20
2019-05-21T09:41:53.647Z,14.30
2019-05-21T09:44:22.553Z,13.10
2019-05-21T09:46:52.378Z,12.77
2019-05-21T09:49:21.180Z,13.20
2019-05-21T09:51:50.188Z,13.40
2019-05-21T09:54:18.987Z,14.27
2019-05-21T09:56:47.735Z,15.00
2019-05-21T09:59:33.916Z,17.50
2019-05-21T10:02:07.079Z,15.83
2019-05-21T10:04:36.194Z,16.47
2019-05-21T10:07:05.438Z,14.97
2019-05-21T10:09:34.322Z,13.93
2019-05-21T10:12:03.512Z,14.20
2019-05-21T10:14:34.237Z,12.77
2019-05-21T10:17:03.364Z,13.07
2019-05-21T10:19:32.421Z,12.27
2019-05-21T10:22:01.218Z,12.00
2019-05-21T10:24:29.916Z,13.17
2019-05-21T10:26:58.644Z,12.17
2019-05-21T10:29:27.377Z,13.77
2019-05-21T10:31:56.224Z,12.03
2019-05-21T10:34:25.018Z,12.03
2019-05-21T10:36:54.155Z,13.70
2019-05-21T10:39:23.000Z,13.10
2019-05-21T10:41:51.734Z,12.40
2019-05-21T10:44:20.582Z,13.03
2019-05-21T10:46:49.545Z,13.47
2019-05-21T10:49:18.293Z,11.70
2019-05-21T10:51:47.251Z,15.43
2019-05-21T10:54:16.002Z,12.03
2019-05-21T10:56:48.336Z,12.10
2019-05-21T10:59:15.389Z,11.47
2019-05-21T11:02:09.583Z,11.23
2019-05-21T11:04:45.456Z,11.73
2019-05-21T11:07:15.807Z,12.50
2019-05-21T11:09:44.892Z,10.87
2019-05-21T11:12:13.968Z,11.37
2019-05-21T11:14:42.790Z,11.87
2019-05-21T11:17:12.822Z,10.70
2019-05-21T11:19:41.808Z,11.23
2019-05-21T11:22:10.663Z,11.20
2019-05-21T11:24:39.403Z,12.40
2019-05-21T11:27:08.202Z,12.00
2019-05-21T11:29:37.557Z,10.47
2019-05-21T11:32:06.530Z,9.20
2019-05-21T11:34:35.486Z,9.00
2019-05-21T11:37:04.608Z,8.53
2019-05-21T11:39:33.502Z,8.77
2019-05-21T11:42:02.218Z,9.97
2019-05-21T11:44:31.064Z,9.23
2019-05-21T11:47:00.076Z,8.37
2019-05-21T11:49:29.129Z,7.03
2019-05-21T11:51:57.850Z,7.40
2019-05-21T11:54:26.624Z,8.20
2019-05-21T11:56:55.446Z,6.70
2019-05-21T11:59:24.180Z,7.00
2019-05-21T12:01:52.969Z,7.30
2019-05-21T12:04:21.728Z,6.97
2019-05-21T12:06:50.546Z,6.10
2019-05-21T12:09:19.322Z,5.20
2019-05-21T12:11:48.036Z,5.47
2019-05-21T12:14:16.753Z,5.33
2019-05-21T12:16:45.463Z,4.87
2019-05-21T12:19:14.192Z,4.43
2019-05-21T12:21:42.892Z,4.43
2019-05-21T12:24:11.642Z,5.77
2019-05-21T12:26:40.355Z,4.10
2019-05-21T12:29:09.079Z,4.13
2019-05-21T12:31:37.782Z,5.37
2019-05-21T12:34:06.818Z,5.43
2019-05-21T12:36:35.572Z,5.50
2019-05-21T12:39:14.121Z,5.40
2019-05-21T12:41:36.401Z,4.57
2019-05-21T12:44:05.206Z,5.00
2019-05-21T12:46:33.914Z,4.83
2019-05-21T12:49:02.678Z,4.70
2019-05-21T12:51:31.510Z,5.30
2019-05-21T12:54:00.241Z,4.83
2019-05-21T12:56:28.964Z,5.63
2019-05-21T12:59:00.668Z,5.80
2019-05-21T13:01:28.846Z,6.97
2019-05-21T13:03:57.560Z,6.57
2019-05-21T13:06:26.309Z,6.00
2019-05-21T13:08:55.055Z,5.97
2019-05-21T13:11:24.040Z,5.27
2019-05-21T13:13:52.763Z,5.47
2019-05-21T13:16:21.548Z,5.83
2019-05-21T13:18:50.352Z,5.20
2019-05-21T13:21:19.100Z,6.23
2019-05-21T13:23:47.836Z,5.97
2019-05-21T13:26:16.713Z,5.50
2019-05-21T13:28:45.483Z,6.60
2019-05-21T13:31:14.285Z,7.50
2019-05-21T13:33:43.131Z,5.93
2019-05-21T13:36:11.877Z,6.80
2019-05-21T13:38:40.594Z,6.17
2019-05-21T13:41:09.791Z,6.03
2019-05-21T13:43:38.510Z,6.10
2019-05-21T13:46:07.247Z,6.43
2019-05-21T13:48:36.042Z,6.63
2019-05-21T13:51:05.320Z,6.50
2019-05-21T13:53:34.157Z,8.73
2019-05-21T13:56:02.945Z,7.47
2019-05-21T13:58:31.659Z,7.93
2019-05-21T14:01:00.454Z,7.13
2019-05-21T14:03:29.233Z,7.53
2019-05-21T14:05:58.025Z,8.10
2019-05-21T14:08:26.747Z,8.30
2019-05-21T14:10:55.557Z,8.33
2019-05-21T14:13:24.468Z,8.80
2019-05-21T14:15:53.238Z,10.57
2019-05-21T14:18:21.943Z,11.17
2019-05-21T14:20:50.650Z,9.93
2019-05-21T14:23:19.426Z,10.13
2019-05-21T14:25:48.135Z,11.10
2019-05-21T14:28:16.958Z,11.17
2019-05-21T14:30:45.755Z,11.70
2019-05-21T14:33:14.656Z,12.17
2019-05-21T14:35:43.442Z,14.10
2019-05-21T14:38:12.208Z,13.10
2019-05-21T14:40:41.009Z,11.97
2019-05-21T14:43:09.841Z,13.07
2019-05-21T14:45:38.611Z,13.67
2019-05-21T14:48:07.491Z,13.13
2019-05-21T14:50:36.392Z,13.10
2019-05-21T14:53:05.202Z,12.67
2019-05-21T14:55:33.915Z,12.00
2019-05-21T14:58:02.654Z,13.40
2019-05-21T15:00:36.593Z,12.40
2019-05-21T15:03:05.710Z,13.10
2019-05-21T15:05:35.297Z,12.97
2019-05-21T15:08:05.053Z,12.37
2019-05-21T15:10:47.339Z,11.63
2019-05-21T15:13:05.929Z,11.43
2019-05-21T15:15:35.896Z,11.57
2019-05-21T15:18:05.199Z,11.57
2019-05-21T15:20:48.817Z,10.03
2019-05-21T15:23:17.630Z,9.77
2019-05-21T15:25:46.374Z,10.70
2019-05-21T15:28:15.109Z,10.20
2019-05-21T15:30:43.931Z,9.63
2019-05-21T15:33:12.774Z,9.50
2019-05-21T15:35:41.568Z,8.33
2019-05-21T15:38:10.311Z,7.83
2019-05-21T15:40:39.154Z,7.00
2019-05-21T15:43:08.979Z,7.57
2019-05-21T15:45:37.862Z,7.90
2019-05-21T15:48:06.819Z,7.40
2019-05-21T15:50:35.698Z,6.53
2019-05-21T15:53:04.582Z,6.47
2019-05-21T15:55:33.376Z,5.57
2019-05-21T15:58:02.163Z,5.80
2019-05-21T16:00:31.031Z,6.00
2019-05-21T16:02:59.905Z,5.60
2019-05-21T16:05:29.468Z,6.37
2019-05-21T16:07:58.698Z,5.90
2019-05-21T16:10:27.737Z,7.00
2019-05-21T16:12:56.459Z,7.47
2019-05-21T16:15:25.260Z,5.10
2019-05-21T16:17:53.986Z,7.27
2019-05-21T16:20:23.120Z,6.00
2019-05-21T16:22:52.079Z,4.83
2019-05-21T16:25:20.990Z,5.23
2019-05-21T16:27:49.706Z,5.53
2019-05-21T16:30:19.044Z,4.87
2019-05-21T16:32:47.860Z,4.87
2019-05-21T16:35:17.230Z,5.13
2019-05-21T16:37:46.039Z,4.47
2019-05-21T16:40:15.412Z,5.40
2019-05-21T16:42:44.140Z,4.43
2019-05-21T16:45:13.854Z,4.40
2019-05-21T16:47:46.166Z,4.17
2019-05-21T16:50:13.401Z,4.03
2019-05-21T16:52:42.101Z,4.20
2019-05-21T16:55:10.973Z,4.67
2019-05-21T16:57:39.810Z,4.73
2019-05-21T17:00:09.590Z,5.10
2019-05-21T17:02:38.308Z,5.20
2019-05-21T17:05:07.398Z,11.63
2019-05-21T17:07:36.182Z,12.00
2019-05-21T17:10:05.434Z,12.77
2019-05-21T17:12:34.209Z,11.23
2019-05-21T17:15:02.945Z,15.57
2019-05-21T17:17:31.861Z,13.50
2019-05-21T17:20:00.601Z,11.63
2019-05-21T17:22:29.374Z,13.40
2019-05-21T17:24:58.351Z,16.17
2019-05-21T17:27:27.185Z,16.13
2019-05-21T17:29:55.995Z,15.07
2019-05-21T17:32:24.959Z,16.50
2019-05-21T17:34:53.916Z,18.27
2019-05-21T17:37:23.146Z,17.60
2019-05-21T17:39:51.919Z,16.87
2019-05-21T17:42:20.805Z,18.20
2019-05-21T17:44:49.674Z,17.67
2019-05-21T17:47:18.756Z,22.07
2019-05-21T17:49:47.665Z,19.87
2019-05-21T17:52:16.418Z,20.20
2019-05-21T17:54:56.314Z,19.87
2019-05-21T17:57:15.875Z,21.13
2019-05-21T17:59:44.796Z,24.47
2019-05-21T18:02:14.093Z,23.37
2019-05-21T18:04:43.742Z,21.23
2019-05-21T18:07:13.904Z,23.20
2019-05-21T18:09:42.993Z,21.37
2019-05-21T18:12:13.656Z,22.33
2019-05-21T18:14:42.785Z,23.00
2019-05-21T18:17:15.727Z,21.83
2019-05-21T18:19:45.881Z,22.00
2019-05-21T18:22:18.106Z,21.93
2019-05-21T18:24:48.705Z,21.20
2019-05-21T18:27:17.760Z,23.20
2019-05-21T18:29:46.604Z,21.40
2019-05-21T18:32:15.481Z,21.03
2019-05-21T18:34:44.364Z,21.50
2019-05-21T18:37:13.121Z,21.50
2019-05-21T18:39:41.864Z,21.37
2019-05-21T18:42:21.814Z,20.63
2019-05-21T18:44:41.489Z,21.27
2019-05-21T18:47:10.252Z,21.13
2019-05-21T18:49:39.162Z,21.83
2019-05-21T18:52:07.912Z,22.23
2019-05-21T18:54:37.096Z,23.47
2019-05-21T18:57:06.650Z,25.33
2019-05-21T18:59:35.442Z,22.27
2019-05-21T19:02:05.740Z,22.10
2019-05-21T19:04:36.398Z,21.53
2019-05-21T19:07:05.402Z,21.43
2019-05-21T19:09:34.289Z,22.50
2019-05-21T19:12:03.515Z,21.83
2019-05-21T19:14:32.357Z,21.73
2019-05-21T19:17:01.249Z,23.20
2019-05-21T19:19:30.193Z,21.87
2019-05-21T19:21:59.005Z,23.80
2019-05-21T19:24:27.825Z,21.90
2019-05-21T19:26:57.201Z,21.73
2019-05-21T19:29:26.118Z,22.37
2019-05-21T19:31:54.876Z,22.53
2019-05-21T19:34:23.618Z,22.20
2019-05-21T19:36:52.422Z,22.37
2019-05-21T19:39:21.327Z,21.23
2019-05-21T19:41:50.087Z,21.87
2019-05-21T19:44:18.864Z,21.83
2019-05-21T19:46:47.723Z,22.83
2019-05-21T19:49:16.625Z,22.17
2019-05-21T19:51:45.370Z,20.87
2019-05-21T19:54:14.343Z,21.90
2019-05-21T19:56:43.288Z,21.53
2019-05-21T19:59:12.674Z,21.80
2019-05-21T20:01:41.608Z,21.73
2019-05-21T20:04:11.528Z,22.27
2019-05-21T20:06:40.813Z,21.67
2019-05-21T20:09:14.589Z,21.73
2019-05-21T20:11:43.937Z,21.37
2019-05-21T20:14:12.854Z,22.33
2019-05-21T20:16:42.924Z,21.47
2019-05-21T20:19:14.059Z,21.03
2019-05-21T20:21:43.379Z,22.07
2019-05-21T20:24:12.462Z,21.70
2019-05-21T20:26:42.703Z,21.40
2019-05-21T20:29:12.657Z,21.43
2019-05-21T20:31:41.642Z,20.63
2019-05-21T20:34:11.494Z,23.40
2019-05-21T20:36:40.963Z,21.27
2019-05-21T20:39:12.469Z,21.20
2019-05-21T20:41:42.041Z,20.27
2019-05-21T20:44:14.333Z,20.50
2019-05-21T20:46:43.810Z,20.33
2019-05-21T20:49:14.271Z,22.00
2019-05-21T20:51:43.078Z,20.00
2019-05-21T20:54:13.557Z,20.60
2019-05-21T20:56:42.544Z,19.97
2019-05-21T20:59:11.466Z,20.13
2019-05-21T21:01:41.342Z,20.20
2019-05-21T21:04:10.503Z,19.70
2019-05-21T21:06:40.385Z,20.80
2019-05-21T21:09:10.338Z,20.77
2019-05-21T21:11:40.101Z,21.07
2019-05-21T21:14:18.118Z,22.87
2019-05-21T21:16:42.542Z,22.57
2019-05-21T21:19:11.888Z,23.47
2019-05-21T21:21:41.844Z,27.60
2019-05-21T21:24:10.776Z,26.43
2019-05-21T21:26:40.123Z,27.60
2019-05-21T21:29:10.604Z,27.33
2019-05-21T21:31:39.585Z,32.07
2019-05-21T21:34:08.834Z,36.00
2019-05-21T21:36:37.844Z,41.53
2019-05-21T21:39:07.864Z,33.13
2019-05-21T21:41:38.535Z,46.03
2019-05-21T21:44:07.906Z,38.77
2019-05-21T21:46:37.349Z,60.53
2019-05-21T21:49:06.180Z,40.00
2019-05-21T21:51:35.494Z,30.17
2019-05-21T21:54:05.082Z,66.30
2019-05-21T21:56:33.817Z,49.40
2019-05-21T21:59:02.564Z,67.43
2019-05-21T22:01:49.155Z,61.87
2019-05-21T22:04:21.102Z,68.10
2019-05-21T22:06:50.245Z,62.10
2019-05-21T22:09:28.934Z,44.20
2019-05-21T22:11:58.180Z,87.00
2019-05-21T22:14:28.099Z,64.67
2019-05-21T22:16:57.193Z,43.83
2019-05-21T22:19:26.899Z,83.10
2019-05-21T22:21:56.064Z,52.40
2019-05-21T22:24:25.090Z,65.27
2019-05-21T22:26:54.434Z,60.17
2019-05-21T22:29:23.298Z,41.10
2019-05-21T22:31:52.612Z,33.63
2019-05-21T22:34:21.965Z,36.67
2019-05-21T22:36:50.728Z,38.90
2019-05-21T22:39:23.945Z,34.87
2019-05-21T22:41:52.967Z,31.57
2019-05-21T22:44:21.713Z,32.73
2019-05-21T22:46:50.722Z,32.13
2019-05-21T22:49:19.781Z,34.77
2019-05-21T22:51:48.614Z,31.13
2019-05-21T22:54:17.429Z,36.13
2019-05-21T22:56:46.274Z,35.20
2019-05-21T22:59:15.000Z,33.37
2019-05-21T23:01:44.310Z,34.43
2019-05-21T23:04:13.280Z,34.60
2019-05-21T23:06:42.023Z,33.97
2019-05-21T23:09:10.853Z,32.13
2019-05-21T23:11:39.598Z,36.10
2019-05-21T23:14:08.342Z,35.40
2019-05-21T23:16:37.940Z,32.60
2019-05-21T23:19:08.650Z,35.73
2019-05-21T23:21:37.399Z,32.47
2019-05-21T23:24:13.108Z,33.80
2019-05-21T23:26:42.739Z,34.40
2019-05-21T23:29:11.734Z,33.83
2019-05-21T23:31:40.552Z,37.07
2019-05-21T23:34:10.395Z,34.40
2019-05-21T23:36:40.816Z,33.57
2019-05-21T23:39:13.634Z,31.50
2019-05-21T23:41:45.184Z,33.13
2019-05-21T23:44:14.390Z,30.80
2019-05-21T23:46:43.316Z,34.57
2019-05-21T23:49:12.122Z,33.27
2019-05-21T23:51:41.371Z,32.27
2019-05-21T23:54:10.918Z,33.23
2019-05-21T23:56:39.831Z,34.90
2019-05-21T23:59:08.558Z,35.23
